Johnsonville, SC (29555)

5:06 AM EDT on July 23, 2014 (GMT -0400)
Conway-Horry County (KHYW) Elev 33 ft | 33.83 °N, 79.12 °W | Change Station

Current weather conditions updated 11 minutes ago

Clear
Clear
70 °F
Feels Like 70 °F
N
0
Wind Variable Wind from North

Today is forecast to be Warmer than yesterday. Afternoon thunderstorms.

Today
High -- | Low -- °F
--% Chance of Precip.
Yesterday
High -- | Low -- °F
Precip. -- in
6:23 AM 8:24 PM
Waning Crescent, 11% visible
Pressure 30.06 in
Visibility 5.0 miles
Clouds Mostly Cloudy 200 ft
Dew Point 70 °F
Humidity 100%
Rainfall 0.00 in
Snow Depth Not available.
UV 0 out of 12
Pollen 1.90 out of 12
Air Quality Not available.
Flu Activity Not available.
METAR KHYW 230855Z AUTO 00000KT 5SM BR BKN002 21/21 A3006 RMK AO2

More Conditions Fewer Conditions

Pressure 30.06 in
Visibility 5.0 miles
Clouds Mostly Cloudy 200 ft
Dew Point 70 °F
Humidity 100%
Rainfall 0.00 in
Snow Depth Not available.
UV 0 out of 12
Pollen 1.90 out of 12
Air Quality Not available.
Flu Activity Not available.
METAR KHYW 230855Z AUTO 00000KT 5SM BR BKN002 21/21 A3006 RMK AO2

More Conditions Fewer Conditions

10-Day Weather Forecast

Almanac

Astronomy

Jul. 23, 2014 Rise Set
Actual Time 6:23 AM EDT 8:24 PM EDT
Civil Twilight 5:55 AM EDT 8:52 PM EDT
Nautical Twilight 5:21 AM EDT 9:26 PM EDT
Astronomical Twilight 4:44 AM EDT 10:02 PM EDT
Moon 3:39 AM EDT 5:53 PM EDT
Length of Visible Light 14h 57m
Length of Day
14h 01m
Tomorrow will be 1m 20s shorter.
Waning Crescent, 11% of the Moon is Illuminated
Today
Waning Crescent
Jul 26
New
Aug 3
First Quarter
Aug 10
Full
Aug 17
Last Quarter

Today's Extremes

State Highs State Lows

Community

WunderPhotos

Upload Photos

1,736,529 photos uploaded!

Nearby

Air Quality

  Air Quality AQ Index Pollutant
Yesterday Good
PM2.5
Yesterday Good
OZONE
Wednesday Good
OZONE

Snow Depth

Station Depth Elevation
No new snow has been reported.

Earthquake Activity

City Distance Mag. Time & Date
No recent earthquake activity has been reported nearby.
Minimum magnitude displayed is 2.5.

Coastal Water Temperatures

Place Temperature
No Stations Reporting

Nearby Weather Stations

Station Location Temp. Heat Index Dew Point Humidity Wind Precip. Elev Updated Type
South Lakes, Conway, SC 72.3 °F - 71 °F 97% NW  at  0.0 mph 0.00 in / hr 24 ft 5:05 AM EDT Normal
Horry County Courthouse, Conway, SC 73.9 °F 70 °F 73 °F 97% SW  at  0.0 mph 0.00 in / hr 29 ft 5:06 AM EDT Rapid Fire
Red Hill, Conway, SC 71.8 °F - 71 °F 97% North  at  0.0 mph 0.00 in / hr 38 ft 5:06 AM EDT Rapid Fire

Show More Stations Show Fewer Stations